createdAt,value
2023-10-20T00:00:16.910Z,22.95
2023-10-20T00:02:45.621Z,21.30
2023-10-20T00:05:15.214Z,24.85
2023-10-20T00:07:45.118Z,25.65
2023-10-20T00:10:13.505Z,25.67
2023-10-20T00:12:41.723Z,29.05
2023-10-20T00:15:15.217Z,29.05
2023-10-20T00:17:44.359Z,25.77
2023-10-20T00:20:13.808Z,27.70
2023-10-20T00:22:42.773Z,29.92
2023-10-20T00:25:13.469Z,24.98
2023-10-20T00:27:42.619Z,24.73
2023-10-20T00:30:13.015Z,26.50
2023-10-20T00:32:42.383Z,26.05
2023-10-20T00:35:11.558Z,24.90
2023-10-20T00:37:39.743Z,30.50
2023-10-20T00:40:10.805Z,20.10
2023-10-20T00:42:44.267Z,23.15
2023-10-20T00:45:13.113Z,24.20
2023-10-20T00:47:42.347Z,26.08
2023-10-20T00:50:14.524Z,30.12
2023-10-20T00:52:45.812Z,27.77
2023-10-20T00:55:15.951Z,27.17
2023-10-20T00:57:46.766Z,24.05
2023-10-20T01:00:18.109Z,26.65
2023-10-20T01:02:46.904Z,26.20
2023-10-20T01:05:17.046Z,24.65
2023-10-20T01:07:45.691Z,25.10
2023-10-20T01:10:14.899Z,24.10
2023-10-20T01:12:43.292Z,25.02
2023-10-20T01:15:16.212Z,25.67
2023-10-20T01:17:45.166Z,33.28
2023-10-20T01:20:13.785Z,22.20
2023-10-20T01:22:43.015Z,26.45
2023-10-20T01:25:13.255Z,29.98
2023-10-20T01:27:41.432Z,25.88
2023-10-20T01:30:12.154Z,24.55
2023-10-20T01:32:43.285Z,33.10
2023-10-20T01:35:11.893Z,28.55
2023-10-20T01:37:41.357Z,26.98
2023-10-20T01:40:10.967Z,25.02
2023-10-20T01:42:40.743Z,27.08
2023-10-20T01:45:11.011Z,26.35
2023-10-20T01:47:39.518Z,22.85
2023-10-20T01:50:08.381Z,25.75
2023-10-20T01:52:36.869Z,24.70
2023-10-20T01:55:05.367Z,31.67
2023-10-20T01:57:33.417Z,25.40
2023-10-20T02:00:04.861Z,28.50
2023-10-20T02:02:40.627Z,28.55
2023-10-20T02:05:10.492Z,31.23
2023-10-20T02:07:39.781Z,26.08
2023-10-20T02:10:08.828Z,25.50
2023-10-20T02:12:37.970Z,29.73
2023-10-20T02:15:11.809Z,24.05
2023-10-20T02:17:40.465Z,23.45
2023-10-20T02:20:09.793Z,28.15
2023-10-20T02:22:38.340Z,29.08
2023-10-20T02:25:07.738Z,30.85
2023-10-20T02:27:35.837Z,29.87
2023-10-20T02:30:05.075Z,24.60
2023-10-20T02:32:34.526Z,25.02
2023-10-20T02:35:03.273Z,26.10
2023-10-20T02:37:31.668Z,27.60
2023-10-20T02:40:00.679Z,29.80
2023-10-20T02:42:32.171Z,27.20
2023-10-20T02:45:01.003Z,24.30
2023-10-20T02:47:29.490Z,22.83
2023-10-20T02:49:59.683Z,31.25
2023-10-20T02:52:29.043Z,21.52
2023-10-20T02:54:57.507Z,27.20
2023-10-20T02:57:25.645Z,28.80
2023-10-20T02:59:53.977Z,25.48
2023-10-20T03:02:24.243Z,27.60
2023-10-20T03:04:54.718Z,25.23
2023-10-20T03:07:28.438Z,24.90
2023-10-20T03:09:58.107Z,25.35
2023-10-20T03:12:26.542Z,23.62
2023-10-20T03:14:54.568Z,24.87
2023-10-20T03:17:22.960Z,25.15
2023-10-20T03:19:52.289Z,25.33
2023-10-20T03:22:20.426Z,23.30
2023-10-20T03:24:49.887Z,26.60
2023-10-20T03:27:18.630Z,22.48
2023-10-20T03:29:48.186Z,27.02
2023-10-20T03:32:16.916Z,23.42
2023-10-20T03:34:45.388Z,27.05
2023-10-20T03:37:14.678Z,26.60
2023-10-20T03:39:44.634Z,24.12
2023-10-20T03:42:15.226Z,26.08
2023-10-20T03:44:49.097Z,21.58
2023-10-20T03:47:18.762Z,25.02
2023-10-20T03:49:47.905Z,23.75
2023-10-20T03:52:16.270Z,24.23
2023-10-20T03:54:45.986Z,20.15
2023-10-20T03:57:17.113Z,21.85
2023-10-20T03:59:48.055Z,25.67
2023-10-20T04:02:16.413Z,17.12
2023-10-20T04:04:45.306Z,23.10
2023-10-20T04:07:13.451Z,21.40
2023-10-20T04:09:41.628Z,27.40
2023-10-20T04:12:09.909Z,28.83
2023-10-20T04:14:39.342Z,22.65
2023-10-20T04:17:07.536Z,22.23
2023-10-20T04:19:36.504Z,21.08
2023-10-20T04:22:13.602Z,18.10
2023-10-20T04:24:42.881Z,17.33
2023-10-20T04:27:21.807Z,19.80
2023-10-20T04:30:05.433Z,16.98
2023-10-20T04:32:51.114Z,20.25
2023-10-20T04:35:42.594Z,21.62
2023-10-20T04:38:28.489Z,15.77
2023-10-20T04:41:14.417Z,19.55
2023-10-20T04:43:43.526Z,21.40
2023-10-20T04:46:30.935Z,17.25
2023-10-20T04:49:16.523Z,20.23
2023-10-20T04:52:06.375Z,19.27
2023-10-20T04:54:52.281Z,18.02
2023-10-20T04:57:38.800Z,14.52
2023-10-20T05:00:31.512Z,17.55
2023-10-20T05:03:16.401Z,15.65
2023-10-20T05:05:53.492Z,14.00
2023-10-20T05:08:24.786Z,16.45
2023-10-20T05:10:55.061Z,16.05
2023-10-20T05:13:23.452Z,14.10
2023-10-20T05:15:51.884Z,19.00
2023-10-20T05:18:21.385Z,15.40
2023-10-20T05:20:49.753Z,14.60
2023-10-20T05:23:18.229Z,15.52
2023-10-20T05:25:50.160Z,19.25
2023-10-20T05:28:18.816Z,17.67
2023-10-20T05:30:48.033Z,13.52
2023-10-20T05:33:16.747Z,13.57
2023-10-20T05:35:46.963Z,14.15
2023-10-20T05:38:15.130Z,13.77
2023-10-20T05:40:43.352Z,11.00
2023-10-20T05:43:11.826Z,14.02
2023-10-20T05:45:41.114Z,14.38
2023-10-20T05:48:10.446Z,10.25
2023-10-20T05:50:40.458Z,12.43
2023-10-20T05:53:11.420Z,12.95
2023-10-20T05:55:40.042Z,11.48
2023-10-20T05:58:08.309Z,13.18
2023-10-20T06:00:59.336Z,10.30
2023-10-20T06:03:27.046Z,13.40
2023-10-20T06:05:59.851Z,12.43
2023-10-20T06:08:31.004Z,9.90
2023-10-20T06:11:04.522Z,8.88
2023-10-20T06:13:35.612Z,10.88
2023-10-20T06:16:11.292Z,12.70
2023-10-20T06:18:41.144Z,10.38
2023-10-20T06:21:14.246Z,10.73
2023-10-20T06:23:45.258Z,10.90
2023-10-20T06:26:14.147Z,9.93
2023-10-20T06:28:42.572Z,10.10
2023-10-20T06:31:38.327Z,9.35
2023-10-20T06:34:18.658Z,10.90
2023-10-20T06:36:49.576Z,9.85
2023-10-20T06:39:22.009Z,8.50
2023-10-20T06:41:50.249Z,8.85
2023-10-20T06:44:21.126Z,11.15
2023-10-20T06:46:49.529Z,10.63
2023-10-20T06:49:20.996Z,11.90
2023-10-20T06:51:50.352Z,11.65
2023-10-20T06:54:20.220Z,9.43
2023-10-20T06:56:48.493Z,11.30
2023-10-20T06:59:16.897Z,9.50
2023-10-20T07:01:46.179Z,9.00
2023-10-20T07:04:14.798Z,9.43
2023-10-20T07:06:43.305Z,10.57
2023-10-20T07:09:14.642Z,9.23
2023-10-20T07:11:45.145Z,9.23
2023-10-20T07:14:15.017Z,7.45
2023-10-20T07:16:44.052Z,9.02
2023-10-20T07:19:13.030Z,13.07
2023-10-20T07:21:41.517Z,9.38
2023-10-20T07:24:10.033Z,8.35
2023-10-20T07:26:38.242Z,8.52
2023-10-20T07:29:07.809Z,9.68
2023-10-20T07:31:39.253Z,8.32
2023-10-20T07:34:10.656Z,9.95
2023-10-20T07:36:39.160Z,10.02
2023-10-20T07:39:09.802Z,12.13
2023-10-20T07:41:38.378Z,6.07
2023-10-20T07:44:12.697Z,8.00
2023-10-20T07:46:43.672Z,7.87
2023-10-20T07:49:12.659Z,7.12
2023-10-20T07:51:40.997Z,8.45
2023-10-20T07:54:10.667Z,8.25
2023-10-20T07:56:40.002Z,8.77
2023-10-20T07:59:09.921Z,8.10
2023-10-20T08:01:38.303Z,8.57
2023-10-20T08:04:10.232Z,8.65
2023-10-20T08:06:38.714Z,6.70
2023-10-20T08:09:13.098Z,10.07
2023-10-20T08:11:43.175Z,9.00
2023-10-20T08:14:12.906Z,8.40
2023-10-20T08:16:41.080Z,6.93
2023-10-20T08:19:10.168Z,7.00
2023-10-20T08:21:38.568Z,6.75
2023-10-20T08:24:08.104Z,8.05
2023-10-20T08:26:36.284Z,9.90
2023-10-20T08:29:09.351Z,9.15
2023-10-20T08:31:38.937Z,7.97
2023-10-20T08:34:07.391Z,6.90
2023-10-20T08:36:35.649Z,7.87
2023-10-20T08:39:14.512Z,7.07
2023-10-20T08:41:44.394Z,8.57
2023-10-20T08:44:13.450Z,7.55
2023-10-20T08:46:44.044Z,9.35
2023-10-20T08:49:13.561Z,9.02
2023-10-20T08:51:42.582Z,8.93
2023-10-20T08:54:11.034Z,7.28
2023-10-20T08:56:41.556Z,7.03
2023-10-20T08:59:09.759Z,10.73
2023-10-20T09:01:38.004Z,12.43
2023-10-20T09:04:07.988Z,9.82
2023-10-20T09:06:38.010Z,8.68
2023-10-20T09:09:07.315Z,12.05
2023-10-20T09:11:35.434Z,9.88
2023-10-20T09:14:03.921Z,9.93
2023-10-20T09:16:32.424Z,11.55
2023-10-20T09:19:00.549Z,12.93
2023-10-20T09:21:30.218Z,11.38
2023-10-20T09:24:02.104Z,8.40
2023-10-20T09:26:32.655Z,15.07
2023-10-20T09:29:01.192Z,9.57
2023-10-20T09:31:30.334Z,11.30
2023-10-20T09:34:00.750Z,8.25
2023-10-20T09:36:32.010Z,11.73
2023-10-20T09:39:02.131Z,10.13
2023-10-20T09:41:31.782Z,12.00
2023-10-20T09:44:07.100Z,10.20
2023-10-20T09:46:54.538Z,11.05
2023-10-20T09:49:27.433Z,10.20
2023-10-20T09:51:59.039Z,11.93
2023-10-20T09:54:28.899Z,13.85
2023-10-20T09:57:00.640Z,13.98
2023-10-20T09:59:30.085Z,11.15
2023-10-20T10:02:01.608Z,15.07
2023-10-20T10:04:34.443Z,13.05
2023-10-20T10:07:06.016Z,12.57
2023-10-20T10:09:38.980Z,12.10
2023-10-20T10:12:15.637Z,11.75
2023-10-20T10:14:44.416Z,12.68
2023-10-20T10:17:12.732Z,13.15
2023-10-20T10:19:51.083Z,9.32
2023-10-20T10:22:26.886Z,11.30
2023-10-20T10:24:56.465Z,16.27
2023-10-20T10:27:28.434Z,12.50
2023-10-20T10:30:01.495Z,11.05
2023-10-20T10:32:33.963Z,15.13
2023-10-20T10:35:05.434Z,7.87
2023-10-20T10:37:36.858Z,13.43
2023-10-20T10:40:10.080Z,12.50
2023-10-20T10:42:40.634Z,10.30
2023-10-20T10:45:24.332Z,14.15
2023-10-20T10:48:04.645Z,13.23
2023-10-20T10:50:38.707Z,9.52
2023-10-20T10:53:09.156Z,12.10
2023-10-20T10:55:38.124Z,10.73
2023-10-20T10:58:08.500Z,8.90
2023-10-20T11:00:37.937Z,11.00
2023-10-20T11:03:07.625Z,8.45
2023-10-20T11:05:36.262Z,11.57
2023-10-20T11:08:05.613Z,10.05
2023-10-20T11:10:37.429Z,6.32
2023-10-20T11:13:08.379Z,10.25
2023-10-20T11:15:38.789Z,9.65
2023-10-20T11:18:09.235Z,11.43
2023-10-20T11:20:41.659Z,8.20
2023-10-20T11:23:10.739Z,11.82
2023-10-20T11:25:41.865Z,8.27
2023-10-20T11:28:10.344Z,8.55
2023-10-20T11:30:43.070Z,6.18
2023-10-20T11:33:16.131Z,11.65
2023-10-20T11:35:46.084Z,9.40
2023-10-20T11:38:15.688Z,5.30
2023-10-20T11:40:50.928Z,6.93
2023-10-20T11:43:19.508Z,7.90
2023-10-20T11:45:47.618Z,8.93
2023-10-20T11:48:16.025Z,5.07
2023-10-20T11:50:44.544Z,4.80
2023-10-20T11:53:14.073Z,6.12
2023-10-20T11:55:42.298Z,4.53
2023-10-20T11:58:12.076Z,7.32
2023-10-20T12:00:43.636Z,7.40
2023-10-20T12:03:12.190Z,9.57
2023-10-20T12:05:41.212Z,5.97
2023-10-20T12:08:12.175Z,6.47
2023-10-20T12:10:40.922Z,5.43
2023-10-20T12:13:09.900Z,4.82
2023-10-20T12:15:39.351Z,4.93
2023-10-20T12:18:08.428Z,4.75
2023-10-20T12:20:37.107Z,5.40
2023-10-20T12:23:07.192Z,3.60
2023-10-20T12:25:35.865Z,3.40
2023-10-20T12:28:04.044Z,5.60
2023-10-20T12:30:32.238Z,5.90
2023-10-20T12:33:02.412Z,5.78
2023-10-20T12:35:30.727Z,4.07
2023-10-20T12:37:59.358Z,4.03
2023-10-20T12:40:27.887Z,6.28
2023-10-20T12:42:55.960Z,4.90
2023-10-20T12:45:23.139Z,5.10
2023-10-20T12:47:53.055Z,4.82
2023-10-20T12:50:22.720Z,2.85
2023-10-20T12:52:51.480Z,3.95
2023-10-20T12:55:20.947Z,6.22
2023-10-20T12:57:50.839Z,5.32
2023-10-20T13:00:19.686Z,3.15
2023-10-20T13:02:51.154Z,2.85
2023-10-20T13:05:19.652Z,3.85
2023-10-20T13:07:51.307Z,4.53
2023-10-20T13:10:21.382Z,6.18
2023-10-20T13:12:49.999Z,4.30
2023-10-20T13:15:20.456Z,3.08
2023-10-20T13:17:48.914Z,2.80
2023-10-20T13:20:17.649Z,3.42
2023-10-20T13:22:45.829Z,4.18
2023-10-20T13:25:18.179Z,4.80
2023-10-20T13:27:46.585Z,4.65
2023-10-20T13:30:15.082Z,2.65
2023-10-20T13:32:43.413Z,3.72
2023-10-20T13:35:11.894Z,2.62
2023-10-20T13:37:40.921Z,2.58
2023-10-20T13:40:11.784Z,6.28
2023-10-20T13:42:42.111Z,4.50
2023-10-20T13:45:10.843Z,3.22
2023-10-20T13:47:39.065Z,4.70
2023-10-20T13:50:10.392Z,3.22
2023-10-20T13:52:41.099Z,3.42
2023-10-20T13:55:09.932Z,2.72
2023-10-20T13:57:38.083Z,4.47
2023-10-20T14:00:09.676Z,3.65
2023-10-20T14:02:38.341Z,3.45
2023-10-20T14:05:09.079Z,4.03
2023-10-20T14:07:37.773Z,4.00
2023-10-20T14:10:07.275Z,3.20
2023-10-20T14:12:35.510Z,3.50
2023-10-20T14:15:04.649Z,3.53
2023-10-20T14:17:34.525Z,3.75
2023-10-20T14:20:03.792Z,2.75
2023-10-20T14:22:32.375Z,3.85
2023-10-20T14:25:00.468Z,3.12
2023-10-20T14:27:28.655Z,3.33
2023-10-20T14:29:57.057Z,2.90
2023-10-20T14:32:25.213Z,3.70
2023-10-20T14:34:54.706Z,3.58
2023-10-20T14:37:23.085Z,3.97
2023-10-20T14:39:51.259Z,3.90
2023-10-20T14:42:19.456Z,2.97
2023-10-20T14:44:49.397Z,3.10
2023-10-20T14:47:17.685Z,3.55
2023-10-20T14:49:45.792Z,4.07
2023-10-20T14:52:15.685Z,4.03
2023-10-20T14:54:44.775Z,3.50
2023-10-20T14:57:13.578Z,4.87
2023-10-20T14:59:43.938Z,4.90
2023-10-20T15:02:12.109Z,4.15
2023-10-20T15:04:40.666Z,5.65
2023-10-20T15:07:09.229Z,4.32
2023-10-20T15:09:38.691Z,4.53
2023-10-20T15:12:07.257Z,4.60
2023-10-20T15:14:35.920Z,4.62
2023-10-20T15:17:04.108Z,2.80
2023-10-20T15:19:32.181Z,4.62
2023-10-20T15:22:00.525Z,4.97
2023-10-20T15:24:28.683Z,4.35
2023-10-20T15:26:58.392Z,7.82
2023-10-20T15:29:26.989Z,7.45
2023-10-20T15:31:55.569Z,5.90
2023-10-20T15:34:24.760Z,4.62
2023-10-20T15:36:53.255Z,7.03
2023-10-20T15:39:35.976Z,6.72
2023-10-20T15:42:13.227Z,3.53
2023-10-20T15:44:40.419Z,5.97
2023-10-20T15:47:08.490Z,5.05
2023-10-20T15:49:37.041Z,6.32
2023-10-20T15:52:05.699Z,7.15
2023-10-20T15:54:35.355Z,7.70
2023-10-20T15:57:04.617Z,5.20
2023-10-20T15:59:34.454Z,6.85
2023-10-20T16:02:03.243Z,5.55
2023-10-20T16:04:32.782Z,4.68
2023-10-20T16:07:01.577Z,7.10
2023-10-20T16:09:29.707Z,5.55
2023-10-20T16:11:58.038Z,7.80
2023-10-20T16:14:26.164Z,7.95
2023-10-20T16:16:55.581Z,12.05
2023-10-20T16:19:25.237Z,9.77
2023-10-20T16:21:53.476Z,7.25
2023-10-20T16:24:21.716Z,8.23
2023-10-20T16:26:50.092Z,7.53
2023-10-20T16:29:18.233Z,9.25
2023-10-20T16:31:46.369Z,8.18
2023-10-20T16:34:16.353Z,7.22
2023-10-20T16:36:44.754Z,6.55
2023-10-20T16:39:13.600Z,8.30
2023-10-20T16:41:42.900Z,9.32
2023-10-20T16:44:11.154Z,10.23
2023-10-20T16:46:40.874Z,9.18
2023-10-20T16:49:09.481Z,8.52
2023-10-20T16:51:39.585Z,9.43
2023-10-20T16:54:07.972Z,7.12
2023-10-20T16:56:37.333Z,9.73
2023-10-20T16:59:05.758Z,7.62
2023-10-20T17:01:33.817Z,9.05
2023-10-20T17:04:02.388Z,6.95
2023-10-20T17:06:30.700Z,8.45
2023-10-20T17:09:00.484Z,9.32
2023-10-20T17:11:29.155Z,8.68
2023-10-20T17:13:57.210Z,7.05
2023-10-20T17:16:25.316Z,9.57
2023-10-20T17:18:53.713Z,9.68
2023-10-20T17:21:21.807Z,9.00
2023-10-20T17:23:49.973Z,9.65
2023-10-20T17:26:19.702Z,10.88
2023-10-20T17:28:48.595Z,8.07
2023-10-20T17:31:16.708Z,8.77
2023-10-20T17:33:45.187Z,10.15
2023-10-20T17:36:13.556Z,9.20
2023-10-20T17:38:41.718Z,14.18
2023-10-20T17:41:10.543Z,8.70
2023-10-20T17:43:39.985Z,9.95
2023-10-20T17:46:08.991Z,9.50
2023-10-20T17:48:37.396Z,13.45
2023-10-20T17:51:06.466Z,11.63
2023-10-20T17:53:34.786Z,10.00
2023-10-20T17:56:04.504Z,9.40
2023-10-20T17:58:33.290Z,11.52
2023-10-20T18:01:08.257Z,6.93
2023-10-20T18:03:37.028Z,13.15
2023-10-20T18:06:10.700Z,15.43
2023-10-20T18:08:40.060Z,12.88
2023-10-20T18:11:09.117Z,10.75
2023-10-20T18:13:40.907Z,11.40
2023-10-20T18:16:12.776Z,11.45
2023-10-20T18:18:42.559Z,13.25
2023-10-20T18:21:13.901Z,11.75
2023-10-20T18:23:42.111Z,11.98
2023-10-20T18:26:10.415Z,10.73
2023-10-20T18:28:38.470Z,10.63
2023-10-20T18:31:15.458Z,12.07
2023-10-20T18:33:44.302Z,12.20
2023-10-20T18:36:12.545Z,13.45
2023-10-20T18:38:40.879Z,14.77
2023-10-20T18:41:14.972Z,12.37
2023-10-20T18:43:43.144Z,13.75
2023-10-20T18:46:11.906Z,10.63
2023-10-20T18:48:41.780Z,14.05
2023-10-20T18:51:11.901Z,18.83
2023-10-20T18:53:42.123Z,13.30
2023-10-20T18:56:10.666Z,11.30
2023-10-20T18:58:38.748Z,13.45
2023-10-20T19:01:08.077Z,10.95
2023-10-20T19:03:36.380Z,12.90
2023-10-20T19:06:09.491Z,14.52
2023-10-20T19:08:38.751Z,12.05
2023-10-20T19:11:11.445Z,14.02
2023-10-20T19:13:40.227Z,13.32
2023-10-20T19:16:08.769Z,12.70
2023-10-20T19:18:37.276Z,10.20
2023-10-20T19:21:11.932Z,11.98
2023-10-20T19:23:40.407Z,12.05
2023-10-20T19:26:11.302Z,17.40
2023-10-20T19:28:40.035Z,13.65
2023-10-20T19:31:09.376Z,13.98
2023-10-20T19:33:39.099Z,13.13
2023-10-20T19:36:10.354Z,17.17
2023-10-20T19:38:39.737Z,13.48
2023-10-20T19:41:09.311Z,15.05
2023-10-20T19:43:37.506Z,12.48
2023-10-20T19:46:05.920Z,12.20
2023-10-20T19:48:34.321Z,16.30
2023-10-20T19:51:02.793Z,12.82
2023-10-20T19:53:33.112Z,13.13
2023-10-20T19:56:01.321Z,15.10
2023-10-20T19:58:29.599Z,11.88
2023-10-20T20:00:59.203Z,13.27
2023-10-20T20:03:27.998Z,13.75
2023-10-20T20:05:56.394Z,13.55
2023-10-20T20:08:24.695Z,14.25
2023-10-20T20:10:57.305Z,13.68
2023-10-20T20:13:25.398Z,17.73
2023-10-20T20:15:53.801Z,15.75
2023-10-20T20:18:22.263Z,10.85
2023-10-20T20:20:50.363Z,12.82
2023-10-20T20:23:18.772Z,18.65
2023-10-20T20:25:46.893Z,16.60
2023-10-20T20:28:16.427Z,16.75
2023-10-20T20:30:45.120Z,17.45
2023-10-20T20:33:14.952Z,17.05
2023-10-20T20:35:43.161Z,13.95
2023-10-20T20:38:11.797Z,15.05
2023-10-20T20:40:39.995Z,14.50
2023-10-20T20:43:08.455Z,14.63
2023-10-20T20:45:38.244Z,14.90
2023-10-20T20:48:07.329Z,14.77
2023-10-20T20:50:40.921Z,16.02
2023-10-20T20:53:16.975Z,12.85
2023-10-20T20:55:46.149Z,13.20
2023-10-20T20:58:14.425Z,14.23
2023-10-20T21:00:43.928Z,13.43
2023-10-20T21:03:14.101Z,18.65
2023-10-20T21:05:42.709Z,15.75
2023-10-20T21:08:10.852Z,20.52
2023-10-20T21:10:39.121Z,16.50
2023-10-20T21:13:07.488Z,15.35
2023-10-20T21:15:37.957Z,13.82
2023-10-20T21:18:07.879Z,11.45
2023-10-20T21:20:38.636Z,14.77
2023-10-20T21:23:06.892Z,13.25
2023-10-20T21:25:37.863Z,15.45
2023-10-20T21:28:07.422Z,15.15
2023-10-20T21:30:37.648Z,13.02
2023-10-20T21:33:07.132Z,15.20
2023-10-20T21:35:39.139Z,16.98
2023-10-20T21:38:07.717Z,14.68
2023-10-20T21:40:43.569Z,15.05
2023-10-20T21:43:12.876Z,15.23
2023-10-20T21:45:41.380Z,14.80
2023-10-20T21:48:11.044Z,14.27
2023-10-20T21:50:39.387Z,16.20
2023-10-20T21:53:07.809Z,14.75
2023-10-20T21:55:36.257Z,14.00
2023-10-20T21:58:04.560Z,16.45
2023-10-20T22:00:32.954Z,14.82
2023-10-20T22:03:01.468Z,16.30
2023-10-20T22:05:31.194Z,15.45
2023-10-20T22:07:59.198Z,14.55
2023-10-20T22:10:27.519Z,15.38
2023-10-20T22:12:55.637Z,18.02
2023-10-20T22:15:25.251Z,15.38
2023-10-20T22:17:53.701Z,13.62
2023-10-20T22:20:22.051Z,15.48
2023-10-20T22:22:51.518Z,13.85
2023-10-20T22:25:20.395Z,14.38
2023-10-20T22:27:48.623Z,11.65
2023-10-20T22:30:17.602Z,13.85
2023-10-20T22:32:46.419Z,14.90
2023-10-20T22:35:14.757Z,14.13
2023-10-20T22:37:42.852Z,14.87
2023-10-20T22:40:13.210Z,14.55
2023-10-20T22:42:41.454Z,11.55
2023-10-20T22:45:10.555Z,18.85
2023-10-20T22:47:39.055Z,16.70
2023-10-20T22:50:09.077Z,10.38
2023-10-20T22:52:37.614Z,17.12
2023-10-20T22:55:07.743Z,17.95
2023-10-20T22:57:37.459Z,17.27
2023-10-20T23:00:10.826Z,18.10
2023-10-20T23:02:41.203Z,12.63
2023-10-20T23:05:11.236Z,20.15
2023-10-20T23:07:39.463Z,17.85
2023-10-20T23:10:09.570Z,11.15
2023-10-20T23:12:39.278Z,11.98
2023-10-20T23:15:10.144Z,11.18
2023-10-20T23:17:38.720Z,15.13
2023-10-20T23:20:08.605Z,12.25
2023-10-20T23:22:36.706Z,13.43
2023-10-20T23:25:05.662Z,12.52
2023-10-20T23:27:33.750Z,10.63
2023-10-20T23:30:03.610Z,11.27
2023-10-20T23:32:31.986Z,12.88
2023-10-20T23:35:01.048Z,10.52
2023-10-20T23:37:29.301Z,10.20
2023-10-20T23:39:57.656Z,13.62
2023-10-20T23:42:25.780Z,12.30
2023-10-20T23:44:54.313Z,11.38
2023-10-20T23:47:23.946Z,10.95
2023-10-20T23:49:52.153Z,12.65
2023-10-20T23:52:20.208Z,14.20
2023-10-20T23:54:52.727Z,13.65
2023-10-20T23:57:20.969Z,14.30
2023-10-20T23:59:49.448Z,9.57
